Time;durP1;ratioP1;P1;durP2;ratioP2;P2;SDS_P1;SDS_P2;PMS_P1;PMS_P2;Temp;Humidity;BMP_temperature;BMP_pressure;BME280_temperature;BME280_humidity;BME280_pressure;Samples;Min_cycle;Max_cycle;Signal;HPM_P1;HPM_P2
2023/01/19 00:02:22;;;;;;;14.30;11.88;;;3.70;99.90;;;;;;4983378;28;20321;-63
2023/01/19 00:04:47;;;;;;;11.95;8.70;;;2.40;99.90;;;;;;4984069;28;20065;-64
2023/01/19 00:07:14;;;;;;;12.70;10.68;;;2.90;99.90;;;;;;4985496;28;20491;-65
2023/01/19 00:09:39;;;;;;;11.85;9.32;;;3.60;99.90;;;;;;4986798;28;20066;-63
2023/01/19 00:12:05;;;;;;;13.00;9.32;;;2.30;99.90;;;;;;4987436;28;20053;-65
2023/01/19 00:14:31;;;;;;;15.07;9.43;;;2.90;99.90;;;;;;4987342;28;20327;-66
2023/01/19 00:16:57;;;;;;;11.85;8.23;;;3.00;99.90;;;;;;4986277;28;20061;-64
2023/01/19 00:19:23;;;;;;;11.25;9.63;;;2.30;99.90;;;;;;4985830;28;20073;-63
2023/01/19 00:21:49;;;;;;;11.95;10.63;;;2.90;99.90;;;;;;4986402;28;20424;-65
2023/01/19 00:24:14;;;;;;;11.90;8.68;;;3.00;99.90;;;;;;4986155;28;20054;-65
2023/01/19 00:26:41;;;;;;;12.43;9.32;;;2.70;99.90;;;;;;4987303;28;20038;-62
2023/01/19 00:29:09;;;;;;;12.85;10.13;;;2.70;99.90;;;;;;4987921;28;20050;-65
2023/01/19 00:31:34;;;;;;;15.02;10.60;;;3.00;99.90;;;;;;4988218;28;20043;-64
2023/01/19 00:34:00;;;;;;;13.88;9.68;;;2.30;99.90;;;;;;4991661;28;20543;-62
2023/01/19 00:36:26;;;;;;;13.60;9.80;;;3.40;99.90;;;;;;5007440;28;20410;-65
2023/01/19 00:38:52;;;;;;;12.23;9.18;;;3.20;99.90;;;;;;5006689;28;20038;-63
2023/01/19 00:41:18;;;;;;;8.27;5.95;;;3.50;99.90;;;;;;5007522;28;20177;-62
2023/01/19 00:43:43;;;;;;;10.70;8.30;;;3.40;99.90;;;;;;5007013;28;20042;-65
2023/01/19 00:46:09;;;;;;;8.00;5.40;;;2.60;99.90;;;;;;5007483;28;20038;-65
2023/01/19 00:48:35;;;;;;;10.65;7.70;;;2.70;99.90;;;;;;5007864;28;20050;-64
2023/01/19 00:51:01;;;;;;;7.57;5.78;;;3.00;99.90;;;;;;5006995;28;20111;-64
2023/01/19 00:53:31;;;;;;;12.63;8.98;;;3.00;99.90;;;;;;5006336;28;20045;-63
2023/01/19 00:55:57;;;;;;;10.52;8.68;;;3.20;99.90;;;;;;5007197;28;20048;-64
2023/01/19 00:58:22;;;;;;;8.50;6.25;;;2.50;99.90;;;;;;5006476;28;20060;-62
2023/01/19 01:00:48;;;;;;;10.82;6.25;;;2.50;99.90;;;;;;5006856;28;20100;-65
2023/01/19 01:03:14;;;;;;;9.40;5.70;;;3.00;99.90;;;;;;5006710;28;20057;-65
2023/01/19 01:05:41;;;;;;;5.53;4.00;;;2.60;99.90;;;;;;5006520;28;20048;-63
2023/01/19 01:08:07;;;;;;;8.93;6.28;;;3.00;99.90;;;;;;5007177;28;20045;-65
2023/01/19 01:10:32;;;;;;;9.25;6.63;;;3.20;99.90;;;;;;5006057;28;20568;-64
2023/01/19 01:12:58;;;;;;;11.73;6.22;;;3.00;99.90;;;;;;5006688;28;20046;-65
2023/01/19 01:15:25;;;;;;;7.80;5.55;;;2.40;99.90;;;;;;5006086;28;20050;-65
2023/01/19 01:17:51;;;;;;;7.55;4.57;;;2.80;99.90;;;;;;5004831;28;20453;-65
2023/01/19 01:20:24;;;;;;;6.80;5.15;;;3.00;99.90;;;;;;5005320;28;20042;-64
2023/01/19 01:22:51;;;;;;;6.63;3.50;;;2.40;99.90;;;;;;5006110;28;20088;-62
2023/01/19 01:25:21;;;;;;;7.25;4.93;;;3.30;99.90;;;;;;5005643;28;20038;-61
2023/01/19 01:27:47;;;;;;;5.78;4.13;;;3.30;99.90;;;;;;5006183;28;20396;-64
2023/01/19 01:30:14;;;;;;;5.30;3.10;;;2.80;99.90;;;;;;5005975;28;20120;-65
2023/01/19 01:32:40;;;;;;;5.05;3.20;;;2.30;99.90;;;;;;5006536;28;20100;-65
2023/01/19 01:35:07;;;;;;;4.38;3.20;;;3.30;99.90;;;;;;5006382;28;20117;-65
2023/01/19 01:37:34;;;;;;;7.28;3.42;;;2.40;99.90;;;;;;5005735;28;20069;-63
2023/01/19 01:40:00;;;;;;;5.18;2.95;;;2.50;99.90;;;;;;5005588;28;20045;-63
2023/01/19 01:42:28;;;;;;;3.75;2.58;;;2.50;99.90;;;;;;5005945;28;20042;-63
2023/01/19 01:44:56;;;;;;;4.47;3.60;;;2.40;99.90;;;;;;5005356;28;20418;-65
2023/01/19 01:47:25;;;;;;;4.68;3.55;;;2.60;99.90;;;;;;5006268;28;20042;-64
2023/01/19 01:49:56;;;;;;;3.78;2.70;;;2.60;99.90;;;;;;5005931;28;20132;-64
2023/01/19 01:52:26;;;;;;;4.82;3.17;;;2.70;99.90;;;;;;5005500;28;20046;-64
2023/01/19 01:54:52;;;;;;;4.60;3.13;;;3.10;99.90;;;;;;5005050;28;20125;-64
2023/01/19 01:57:17;;;;;;;4.28;2.97;;;2.70;99.90;;;;;;5004262;28;20125;-62
2023/01/19 01:59:46;;;;;;;6.78;4.13;;;2.90;99.90;;;;;;5005618;28;20081;-63
2023/01/19 02:03:18;;;;;;;6.65;4.18;;;1.90;99.90;;;;;;5005773;28;20034;-62
2023/01/19 02:05:31;;;;;;;5.82;3.65;;;2.10;99.90;;;;;;4992381;28;20041;-64
2023/01/19 02:13:45;;;;;;;5.18;3.05;;;2.70;99.90;;;;;;5005848;28;20116;-64
2023/01/19 02:16:13;;;;;;;4.47;3.00;;;2.40;99.90;;;;;;5005662;28;20053;-64
2023/01/19 02:18:39;;;;;;;6.10;3.95;;;1.70;99.90;;;;;;5005174;28;20092;-64
2023/01/19 02:21:14;;;;;;;5.40;4.53;;;1.60;99.90;;;;;;5005476;28;20054;-64
2023/01/19 02:23:49;;;;;;;5.97;4.10;;;2.40;99.90;;;;;;5005415;28;20038;-64
2023/01/19 02:26:23;;;;;;;7.03;4.28;;;2.20;99.90;;;;;;4987489;28;20082;-65
2023/01/19 02:28:56;;;;;;;6.03;4.77;;;2.60;99.90;;;;;;5003909;28;20108;-64
2023/01/19 02:31:23;;;;;;;6.45;5.05;;;2.00;99.90;;;;;;4989266;28;20324;-64
2023/01/19 02:33:49;;;;;;;7.70;5.13;;;2.00;99.90;;;;;;4985505;28;20054;-64
2023/01/19 02:36:16;;;;;;;9.60;6.00;;;2.10;99.90;;;;;;4985427;28;20057;-65
2023/01/19 02:38:45;;;;;;;7.72;5.85;;;2.10;99.90;;;;;;4984667;28;20046;-65
2023/01/19 02:41:15;;;;;;;8.68;6.30;;;2.00;99.90;;;;;;4985740;28;20532;-64
2023/01/19 02:43:42;;;;;;;9.43;5.13;;;2.50;99.90;;;;;;4984525;28;20118;-63
2023/01/19 02:46:08;;;;;;;8.88;5.88;;;2.30;99.90;;;;;;4985192;28;20478;-63
2023/01/19 02:48:34;;;;;;;9.02;5.88;;;2.30;99.90;;;;;;4985300;28;20361;-64
2023/01/19 02:51:07;;;;;;;9.32;6.43;;;1.80;99.90;;;;;;4984074;28;20169;-64
2023/01/19 02:53:48;;;;;;;11.75;8.40;;;2.40;99.90;;;;;;4982883;28;20055;-63
2023/01/19 02:56:45;;;;;;;12.43;9.38;;;2.40;99.90;;;;;;4984190;28;20414;-64
2023/01/19 02:59:25;;;;;;;10.13;6.57;;;2.00;99.90;;;;;;4985827;28;20086;-64
2023/01/19 03:02:10;;;;;;;10.00;7.15;;;2.00;99.90;;;;;;4984846;28;20104;-63
2023/01/19 03:05:07;;;;;;;11.10;7.00;;;1.80;99.90;;;;;;4985520;28;20050;-63
2023/01/19 03:08:12;;;;;;;13.50;8.27;;;1.90;99.90;;;;;;4984727;28;20057;-63
2023/01/19 03:10:44;;;;;;;17.70;10.33;;;1.60;99.90;;;;;;4984660;28;20112;-63
2023/01/19 03:13:15;;;;;;;12.30;8.75;;;1.70;99.90;;;;;;4984944;28;20085;-64
2023/01/19 03:15:51;;;;;;;12.20;8.95;;;1.90;99.90;;;;;;4984496;28;20050;-63
2023/01/19 03:18:24;;;;;;;16.50;12.48;;;2.30;99.90;;;;;;4984747;28;20053;-65
2023/01/19 03:20:54;;;;;;;12.63;9.68;;;2.00;99.90;;;;;;4983393;28;20050;-64
2023/01/19 03:23:23;;;;;;;15.35;12.18;;;1.60;99.90;;;;;;4982816;28;20051;-63
2023/01/19 03:25:52;;;;;;;16.40;12.60;;;2.20;99.90;;;;;;4984801;28;20061;-63
2023/01/19 03:28:20;;;;;;;16.08;12.13;;;2.00;99.90;;;;;;4984089;28;20070;-62
2023/01/19 03:30:57;;;;;;;16.13;12.57;;;1.90;99.90;;;;;;4985027;28;20078;-62
2023/01/19 03:33:28;;;;;;;17.52;12.93;;;2.00;99.90;;;;;;4984387;28;20078;-64
2023/01/19 03:36:02;;;;;;;15.95;12.45;;;2.10;99.90;;;;;;4984206;28;20042;-63
2023/01/19 03:38:32;;;;;;;16.77;12.15;;;2.20;99.90;;;;;;4983848;28;20081;-63
2023/01/19 03:41:01;;;;;;;15.93;13.23;;;2.90;99.90;;;;;;4984415;28;20069;-63
2023/01/19 03:43:28;;;;;;;17.05;13.70;;;2.40;99.90;;;;;;4988110;28;20053;-63
2023/01/19 03:45:55;;;;;;;18.80;12.98;;;1.70;99.90;;;;;;4988770;28;20125;-63
2023/01/19 03:48:22;;;;;;;16.83;14.13;;;2.70;99.90;;;;;;4988138;28;20438;-62
2023/01/19 03:50:47;;;;;;;19.25;14.88;;;2.10;99.90;;;;;;4988779;28;20411;-63
2023/01/19 03:53:16;;;;;;;14.82;10.75;;;2.20;99.90;;;;;;4987738;28;20050;-62
2023/01/19 03:55:45;;;;;;;19.88;16.00;;;2.20;99.90;;;;;;4987868;28;20046;-63
2023/01/19 03:58:11;;;;;;;19.08;15.15;;;2.50;99.90;;;;;;4987991;28;20042;-62
2023/01/19 04:00:37;;;;;;;17.00;11.82;;;2.30;99.90;;;;;;4986862;28;20041;-63
2023/01/19 04:03:13;;;;;;;19.52;14.88;;;1.90;99.90;;;;;;4988049;28;20043;-62
2023/01/19 04:05:39;;;;;;;19.80;16.05;;;1.90;99.90;;;;;;4988027;28;20050;-63
2023/01/19 04:08:05;;;;;;;22.50;16.67;;;3.10;99.90;;;;;;4987028;28;20041;-63
2023/01/19 04:10:31;;;;;;;20.30;17.05;;;2.10;99.90;;;;;;4987478;28;20046;-63
2023/01/19 04:12:58;;;;;;;18.85;14.20;;;2.40;99.90;;;;;;4988090;28;20038;-63
2023/01/19 04:15:24;;;;;;;21.35;15.30;;;2.80;99.90;;;;;;4988042;28;20136;-64
2023/01/19 04:17:50;;;;;;;17.50;15.15;;;2.00;99.90;;;;;;4988402;28;20118;-62
2023/01/19 04:20:16;;;;;;;19.38;15.13;;;1.60;99.90;;;;;;4987977;28;20158;-62
2023/01/19 04:22:41;;;;;;;21.67;15.57;;;1.90;99.90;;;;;;4988042;28;20593;-62
2023/01/19 04:25:08;;;;;;;18.75;14.15;;;2.30;99.90;;;;;;4987174;28;20492;-60
2023/01/19 04:27:35;;;;;;;16.88;12.52;;;2.10;99.90;;;;;;4987340;28;20047;-63
2023/01/19 04:30:02;;;;;;;16.02;12.48;;;1.80;99.90;;;;;;4986547;28;20416;-63
2023/01/19 04:32:28;;;;;;;14.27;9.68;;;1.70;99.90;;;;;;4986378;28;20131;-62
2023/01/19 04:34:54;;;;;;;19.85;13.75;;;2.30;99.90;;;;;;4987386;28;20045;-63
2023/01/19 04:37:20;;;;;;;17.73;14.77;;;2.50;99.90;;;;;;4988182;28;20495;-63
2023/01/19 04:39:46;;;;;;;15.50;11.82;;;1.90;99.90;;;;;;4987086;28;20125;-63
2023/01/19 04:42:11;;;;;;;18.67;15.07;;;3.10;99.90;;;;;;4987220;28;20164;-62
2023/01/19 04:44:38;;;;;;;15.73;12.95;;;1.70;99.90;;;;;;4987625;28;20053;-61
2023/01/19 04:47:03;;;;;;;19.67;15.60;;;3.30;99.90;;;;;;4987746;28;20101;-63
2023/01/19 04:49:29;;;;;;;18.35;14.55;;;2.30;99.90;;;;;;4987563;28;20503;-63
2023/01/19 04:51:55;;;;;;;17.65;14.85;;;2.90;99.90;;;;;;4987184;28;20030;-64
2023/01/19 04:54:21;;;;;;;19.08;16.15;;;1.70;99.90;;;;;;4985451;28;20070;-63
2023/01/19 04:56:47;;;;;;;19.02;15.43;;;2.10;99.90;;;;;;4987065;28;20061;-63
2023/01/19 04:59:13;;;;;;;21.50;15.48;;;2.40;99.90;;;;;;4986938;28;20038;-63
2023/01/19 05:01:38;;;;;;;20.90;14.95;;;2.40;99.90;;;;;;4987258;28;20049;-61
2023/01/19 05:04:05;;;;;;;18.38;13.50;;;2.20;99.90;;;;;;4987217;28;20355;-63
2023/01/19 05:06:32;;;;;;;17.20;13.35;;;1.60;99.90;;;;;;4986802;28;20054;-64
2023/01/19 05:08:58;;;;;;;18.48;13.15;;;1.90;99.90;;;;;;4986253;28;20042;-62
2023/01/19 05:11:24;;;;;;;16.63;13.38;;;2.20;99.90;;;;;;4987247;28;20109;-62
2023/01/19 05:13:50;;;;;;;16.83;12.07;;;1.80;99.90;;;;;;4987411;28;20059;-62
2023/01/19 05:16:16;;;;;;;15.02;11.00;;;2.20;99.90;;;;;;4985175;28;20081;-63
2023/01/19 05:18:42;;;;;;;16.58;12.82;;;3.00;99.90;;;;;;4985510;28;20046;-63
2023/01/19 05:21:07;;;;;;;16.50;12.93;;;2.10;99.90;;;;;;4986841;28;20491;-63
2023/01/19 05:23:33;;;;;;;14.43;12.55;;;1.70;99.90;;;;;;4986129;28;20117;-64
2023/01/19 05:26:00;;;;;;;15.77;12.23;;;2.60;99.90;;;;;;4986790;28;20049;-63
2023/01/19 05:28:30;;;;;;;17.92;12.30;;;1.80;99.90;;;;;;4987066;28;20129;-63
2023/01/19 05:30:56;;;;;;;14.90;12.30;;;2.80;99.90;;;;;;4986404;28;20042;-62
2023/01/19 05:33:22;;;;;;;15.77;12.02;;;1.50;99.90;;;;;;4986951;28;20126;-62
2023/01/19 05:35:52;;;;;;;15.88;12.10;;;2.40;99.90;;;;;;4985141;28;20047;-63
2023/01/19 05:38:19;;;;;;;17.00;12.23;;;1.50;99.90;;;;;;4985854;28;20038;-61
2023/01/19 05:40:45;;;;;;;15.02;12.23;;;2.50;99.90;;;;;;4986653;28;20121;-63
2023/01/19 05:43:12;;;;;;;16.42;11.55;;;2.70;99.90;;;;;;4986354;28;20210;-63
2023/01/19 05:45:38;;;;;;;14.02;10.73;;;1.60;99.90;;;;;;4986197;28;20063;-63
2023/01/19 05:48:04;;;;;;;15.48;10.98;;;1.20;99.90;;;;;;4986451;28;20499;-63
2023/01/19 05:50:31;;;;;;;16.73;11.40;;;1.90;99.90;;;;;;4985084;28;20042;-61
2023/01/19 05:52:57;;;;;;;18.25;12.07;;;2.50;99.90;;;;;;4985664;28;20046;-64
2023/01/19 05:55:23;;;;;;;19.00;11.82;;;2.70;99.90;;;;;;4986105;28;20050;-61
2023/01/19 05:57:49;;;;;;;19.27;11.77;;;1.80;99.90;;;;;;4986192;28;20403;-64
2023/01/19 06:00:15;;;;;;;17.30;11.95;;;2.00;99.90;;;;;;4984559;28;20057;-64
2023/01/19 06:02:40;;;;;;;18.75;10.95;;;2.00;99.90;;;;;;4985740;28;20053;-64
2023/01/19 06:05:06;;;;;;;16.48;11.02;;;2.50;99.90;;;;;;4985106;28;20038;-64
2023/01/19 06:07:32;;;;;;;16.20;10.40;;;2.00;99.90;;;;;;4984157;28;20137;-63
2023/01/19 06:09:58;;;;;;;17.05;10.20;;;1.70;99.90;;;;;;4985523;28;20126;-64
2023/01/19 06:12:24;;;;;;;13.48;9.18;;;2.00;99.90;;;;;;4986491;28;20518;-64
2023/01/19 06:14:49;;;;;;;16.73;9.55;;;1.70;99.90;;;;;;4984717;28;20046;-63
2023/01/19 06:17:15;;;;;;;19.05;9.48;;;2.60;99.90;;;;;;4986138;28;20050;-63
2023/01/19 06:19:41;;;;;;;13.90;8.55;;;1.80;99.90;;;;;;4985283;28;20046;-63
2023/01/19 06:22:07;;;;;;;14.60;8.55;;;1.20;99.90;;;;;;4984393;28;20482;-64
2023/01/19 06:24:32;;;;;;;14.85;8.75;;;1.20;99.90;;;;;;4983746;28;20046;-63
2023/01/19 06:27:01;;;;;;;12.02;8.40;;;3.00;99.90;;;;;;4985306;28;20411;-64
2023/01/19 06:29:27;;;;;;;13.75;7.63;;;2.20;99.90;;;;;;4986024;28;20046;-63
2023/01/19 06:31:52;;;;;;;8.70;5.93;;;1.60;99.90;;;;;;4985654;28;20423;-64
2023/01/19 06:34:18;;;;;;;9.48;6.15;;;2.20;99.90;;;;;;4984808;28;20600;-63
2023/01/19 06:36:45;;;;;;;10.05;5.80;;;2.20;99.90;;;;;;4984384;28;20046;-64
2023/01/19 06:39:11;;;;;;;11.98;5.35;;;2.10;99.90;;;;;;4984708;28;20548;-64
2023/01/19 06:41:37;;;;;;;10.02;5.10;;;1.70;99.90;;;;;;4985229;28;20042;-63
2023/01/19 06:44:04;;;;;;;8.52;4.65;;;1.50;99.90;;;;;;4985253;28;20046;-63
2023/01/19 06:46:30;;;;;;;8.32;4.70;;;3.00;99.90;;;;;;4985269;28;20057;-64
2023/01/19 06:48:56;;;;;;;9.32;4.35;;;2.60;99.90;;;;;;4985402;28;20050;-64
2023/01/19 06:51:22;;;;;;;8.85;4.35;;;1.60;99.90;;;;;;4983763;28;20061;-64
2023/01/19 06:53:48;;;;;;;9.68;4.18;;;3.40;99.90;;;;;;4984541;28;20061;-64
2023/01/19 06:56:14;;;;;;;8.63;4.10;;;2.40;99.90;;;;;;4984884;28;20046;-62
2023/01/19 06:58:41;;;;;;;10.88;3.08;;;3.20;99.90;;;;;;4984652;28;20479;-63
2023/01/19 07:01:07;;;;;;;8.32;2.85;;;2.90;99.90;;;;;;4985436;28;20057;-63
2023/01/19 07:03:34;;;;;;;6.55;2.20;;;2.30;99.90;;;;;;4985099;28;20043;-63
2023/01/19 07:06:05;;;;;;;11.68;2.17;;;2.50;99.90;;;;;;4985128;28;20402;-63
2023/01/19 07:08:32;;;;;;;9.23;2.13;;;3.10;99.90;;;;;;4983966;28;20050;-64
2023/01/19 07:11:04;;;;;;;11.52;2.20;;;2.70;99.90;;;;;;4985259;28;20670;-63
2023/01/19 07:13:31;;;;;;;8.95;1.70;;;2.30;99.90;;;;;;4983504;28;20407;-62
2023/01/19 07:15:56;;;;;;;8.90;1.90;;;3.00;99.90;;;;;;4985039;28;20133;-63
2023/01/19 07:18:22;;;;;;;6.95;1.50;;;2.00;99.90;;;;;;4984692;28;20113;-63
2023/01/19 07:20:48;;;;;;;7.65;1.50;;;3.00;99.90;;;;;;4984680;28;20050;-64
2023/01/19 07:23:14;;;;;;;9.57;1.58;;;2.50;99.90;;;;;;4982527;28;20077;-63
2023/01/19 07:25:43;;;;;;;9.85;1.70;;;2.10;99.90;;;;;;4984859;28;20464;-63
2023/01/19 07:28:08;;;;;;;7.68;1.40;;;2.80;99.90;;;;;;4984204;28;20435;-62
2023/01/19 07:30:34;;;;;;;5.75;1.00;;;3.50;99.90;;;;;;4984711;28;20296;-62
2023/01/19 07:33:01;;;;;;;5.97;1.02;;;3.50;99.90;;;;;;4984458;28;20030;-60
2023/01/19 07:35:28;;;;;;;9.25;1.15;;;2.40;99.90;;;;;;4984807;28;20411;-63
2023/01/19 07:37:54;;;;;;;7.20;1.30;;;2.40;99.90;;;;;;4982222;28;20389;-63
2023/01/19 07:40:19;;;;;;;8.55;1.30;;;2.60;99.90;;;;;;4983270;28;20047;-64
2023/01/19 07:42:47;;;;;;;5.70;1.33;;;3.00;99.90;;;;;;4984375;28;20053;-64
2023/01/19 07:45:14;;;;;;;7.47;1.30;;;2.90;99.90;;;;;;4984045;28;20053;-64
2023/01/19 07:47:43;;;;;;;9.27;1.63;;;2.80;99.90;;;;;;4984670;28;20443;-64
2023/01/19 07:50:10;;;;;;;7.88;1.33;;;3.30;99.90;;;;;;4983113;28;20403;-64
2023/01/19 07:52:35;;;;;;;9.05;1.58;;;2.20;99.90;;;;;;4983353;28;20699;-65
2023/01/19 07:55:01;;;;;;;12.38;1.83;;;2.90;99.90;;;;;;4983424;28;20125;-64
2023/01/19 07:57:27;;;;;;;10.82;1.83;;;2.90;99.90;;;;;;4985722;28;20443;-62
2023/01/19 07:59:53;;;;;;;8.15;1.80;;;3.00;99.90;;;;;;4985618;28;20129;-65
2023/01/19 08:02:18;;;;;;;14.02;2.55;;;2.60;99.90;;;;;;4986218;28;20050;-65
2023/01/19 08:04:47;;;;;;;8.35;1.83;;;2.80;99.90;;;;;;4986248;28;20054;-62
2023/01/19 08:07:13;;;;;;;10.73;1.50;;;2.90;99.90;;;;;;4985421;28;20407;-64
2023/01/19 08:09:39;;;;;;;11.90;2.00;;;2.70;99.90;;;;;;4985804;28;20050;-62
2023/01/19 08:12:04;;;;;;;9.38;1.88;;;3.00;99.90;;;;;;4984752;28;20061;-64
2023/01/19 08:14:30;;;;;;;8.00;1.90;;;2.90;99.90;;;;;;4986528;28;20042;-65
2023/01/19 08:17:00;;;;;;;12.15;2.38;;;2.30;99.90;;;;;;4985110;28;20092;-64
2023/01/19 08:19:26;;;;;;;11.73;2.20;;;2.30;99.90;;;;;;4985896;28;20170;-63
2023/01/19 08:21:52;;;;;;;11.25;2.28;;;2.20;99.90;;;;;;4985664;28;20235;-63
2023/01/19 08:24:21;;;;;;;8.70;1.80;;;3.70;99.90;;;;;;4982988;28;20042;-63
2023/01/19 08:26:48;;;;;;;9.10;2.15;;;3.10;99.90;;;;;;4984235;28;20136;-63
2023/01/19 08:29:14;;;;;;;11.38;2.03;;;2.70;99.90;;;;;;4987060;28;20061;-63
2023/01/19 08:31:40;;;;;;;14.98;2.25;;;2.70;99.90;;;;;;4987655;28;20038;-63
2023/01/19 08:34:07;;;;;;;11.02;1.73;;;3.10;99.90;;;;;;4987532;28;20042;-64
2023/01/19 08:36:33;;;;;;;9.75;1.77;;;2.40;99.90;;;;;;4988235;28;20038;-63
2023/01/19 08:38:58;;;;;;;16.80;1.90;;;3.30;99.90;;;;;;4986767;28;20042;-64
2023/01/19 08:41:24;;;;;;;11.77;1.90;;;2.50;99.90;;;;;;4987661;28;20534;-63
2023/01/19 08:43:50;;;;;;;10.45;1.90;;;3.20;99.90;;;;;;4988065;28;20129;-63
2023/01/19 08:46:19;;;;;;;19.80;2.65;;;3.40;99.90;;;;;;4986077;28;20105;-64
2023/01/19 08:48:46;;;;;;;15.40;2.58;;;3.30;99.90;;;;;;4986015;28;20054;-64
2023/01/19 08:51:14;;;;;;;18.02;2.58;;;3.00;99.90;;;;;;4987469;28;20527;-63
2023/01/19 08:53:41;;;;;;;12.23;2.60;;;3.30;99.90;;;;;;4985639;28;20704;-62
2023/01/19 08:56:11;;;;;;;18.25;2.33;;;3.70;99.90;;;;;;4986679;28;20126;-62
2023/01/19 08:58:44;;;;;;;11.10;2.20;;;3.10;99.90;;;;;;4987862;28;20047;-63
2023/01/19 09:01:13;;;;;;;13.95;2.92;;;2.70;99.90;;;;;;4985911;28;20467;-63
2023/01/19 09:03:39;;;;;;;16.15;2.58;;;2.50;99.90;;;;;;4987346;28;20050;-62
2023/01/19 09:06:08;;;;;;;16.67;2.83;;;3.30;99.90;;;;;;4987533;28;20042;-64
2023/01/19 09:08:34;;;;;;;16.02;2.53;;;3.00;99.90;;;;;;4985874;28;20394;-63
2023/01/19 09:11:00;;;;;;;18.48;2.45;;;2.80;99.90;;;;;;4987426;28;20077;-64
2023/01/19 09:13:26;;;;;;;14.05;2.33;;;2.90;99.90;;;;;;4987371;28;20270;-64
2023/01/19 09:15:52;;;;;;;15.18;2.28;;;3.30;99.90;;;;;;4986865;28;20050;-64
2023/01/19 09:18:20;;;;;;;14.20;2.33;;;3.30;99.90;;;;;;4986481;28;20370;-65
2023/01/19 09:20:48;;;;;;;14.65;2.60;;;3.10;99.90;;;;;;4986814;28;20073;-61
2023/01/19 09:23:16;;;;;;;15.57;2.35;;;3.50;99.90;;;;;;4978525;28;20129;-62
2023/01/19 09:25:46;;;;;;;10.15;1.80;;;2.90;99.90;;;;;;4985315;28;20123;-63
2023/01/19 09:28:15;;;;;;;12.50;2.10;;;3.20;99.90;;;;;;4986536;28;20086;-63
2023/01/19 09:30:42;;;;;;;13.88;2.08;;;3.70;99.90;;;;;;4986050;28;20104;-64
2023/01/19 09:33:13;;;;;;;13.18;2.20;;;3.20;99.90;;;;;;4986121;28;20054;-63
2023/01/19 09:35:40;;;;;;;8.68;2.17;;;3.80;99.90;;;;;;4985137;28;20058;-64
2023/01/19 09:38:07;;;;;;;12.88;2.08;;;3.90;99.90;;;;;;4985951;28;20038;-62
2023/01/19 09:40:35;;;;;;;9.70;1.60;;;4.00;99.90;;;;;;4986713;28;20045;-61
2023/01/19 09:43:25;;;;;;;13.57;1.90;;;4.00;99.90;;;;;;4985342;28;20046;-61
2023/01/19 09:45:57;;;;;;;15.07;1.88;;;3.70;99.90;;;;;;4986311;28;20414;-64
2023/01/19 09:48:44;;;;;;;11.88;2.40;;;3.90;99.90;;;;;;4986670;28;20097;-64
2023/01/19 09:51:22;;;;;;;15.63;2.65;;;3.90;99.90;;;;;;4986948;28;20097;-64
2023/01/19 09:54:14;;;;;;;13.10;2.17;;;4.10;99.90;;;;;;4986051;28;20113;-64
2023/01/19 09:56:41;;;;;;;12.43;2.17;;;4.00;99.90;;;;;;4986425;28;20042;-65
2023/01/19 09:59:27;;;;;;;12.82;2.33;;;4.50;99.90;;;;;;4986996;28;20103;-64
2023/01/19 10:02:18;;;;;;;9.98;2.20;;;5.20;99.90;;;;;;4986459;28;20050;-64
2023/01/19 10:04:53;;;;;;;14.48;2.53;;;4.90;99.90;;;;;;4986130;28;20503;-64
2023/01/19 10:07:54;;;;;;;14.30;2.95;;;4.90;99.90;;;;;;4985711;28;20122;-64
2023/01/19 10:10:21;;;;;;;14.10;2.58;;;4.90;99.90;;;;;;4985983;28;20411;-64
2023/01/19 10:13:03;;;;;;;12.02;2.17;;;4.50;99.90;;;;;;4986198;28;20422;-64
2023/01/19 10:15:51;;;;;;;11.55;2.55;;;4.50;99.90;;;;;;4985976;28;20132;-64
2023/01/19 10:18:35;;;;;;;16.00;3.45;;;4.50;99.90;;;;;;4977246;28;20129;-64
2023/01/19 10:21:09;;;;;;;13.88;2.42;;;4.40;99.90;;;;;;4985699;28;20484;-65
2023/01/19 10:23:59;;;;;;;13.43;2.53;;;4.40;99.90;;;;;;4986873;28;20081;-62
2023/01/19 10:26:46;;;;;;;12.07;2.78;;;4.50;99.90;;;;;;4985542;28;20109;-62
2023/01/19 10:29:27;;;;;;;13.52;3.28;;;4.70;99.90;;;;;;4984871;28;20129;-62
2023/01/19 10:32:03;;;;;;;10.95;2.38;;;4.70;99.90;;;;;;4986647;28;20419;-63
2023/01/19 10:34:29;;;;;;;10.73;2.70;;;4.70;99.90;;;;;;4986708;28;20080;-62
2023/01/19 10:37:04;;;;;;;13.93;2.80;;;4.90;99.90;;;;;;4986351;28;20125;-64
2023/01/19 10:39:30;;;;;;;10.35;2.03;;;5.10;99.90;;;;;;4987183;28;20073;-64
2023/01/19 10:42:05;;;;;;;13.40;2.90;;;5.60;99.90;;;;;;4986803;28;20105;-62
2023/01/19 10:44:36;;;;;;;11.05;2.17;;;6.30;99.90;;;;;;4987245;28;20042;-63
2023/01/19 10:47:05;;;;;;;9.38;2.50;;;6.70;99.90;;;;;;4985717;28;20504;-61
2023/01/19 10:49:39;;;;;;;12.35;3.00;;;6.90;99.90;;;;;;4985998;28;20046;-63
2023/01/19 10:52:16;;;;;;;10.93;2.78;;;7.10;99.90;;;;;;4983521;28;20050;-65
2023/01/19 10:54:43;;;;;;;9.80;1.73;;;7.30;99.90;;;;;;4984254;28;20851;-64
2023/01/19 10:57:11;;;;;;;11.13;2.15;;;7.70;99.90;;;;;;4985695;28;20153;-65
2023/01/19 10:59:43;;;;;;;10.13;1.83;;;8.30;99.90;;;;;;4985665;28;20042;-64
2023/01/19 11:02:25;;;;;;;10.10;2.35;;;8.00;99.90;;;;;;4986495;28;20545;-62
2023/01/19 11:04:56;;;;;;;10.15;2.00;;;7.80;99.90;;;;;;4985528;28;20050;-63
2023/01/19 11:07:32;;;;;;;8.52;2.08;;;8.00;99.90;;;;;;4983143;28;20045;-62
2023/01/19 11:10:12;;;;;;;10.93;2.00;;;8.00;99.90;;;;;;4984983;28;20094;-62
2023/01/19 11:12:45;;;;;;;7.38;1.98;;;8.10;99.90;;;;;;4985297;28;20053;-63
2023/01/19 11:15:19;;;;;;;11.18;2.00;;;8.40;99.90;;;;;;4984269;28;20193;-62
2023/01/19 11:17:47;;;;;;;11.05;1.80;;;8.50;99.90;;;;;;4984015;28;20042;-63
2023/01/19 11:20:24;;;;;;;9.60;2.30;;;8.20;99.90;;;;;;4982575;28;20086;-64
2023/01/19 11:23:04;;;;;;;8.55;1.88;;;8.40;99.90;;;;;;4983435;28;20050;-63
2023/01/19 11:25:32;;;;;;;12.50;2.83;;;8.50;99.90;;;;;;4983763;28;20085;-63
2023/01/19 11:27:59;;;;;;;10.43;2.50;;;8.90;99.90;;;;;;4983715;28;20122;-63
2023/01/19 11:30:25;;;;;;;10.45;2.47;;;8.50;99.90;;;;;;4984365;28;20050;-63
2023/01/19 11:32:52;;;;;;;11.05;2.75;;;8.80;99.90;;;;;;4985190;28;20443;-62
2023/01/19 11:35:32;;;;;;;8.25;1.80;;;8.80;99.90;;;;;;4984933;28;20039;-62
2023/01/19 11:38:04;;;;;;;8.55;2.03;;;9.10;99.90;;;;;;4984477;28;20585;-63
2023/01/19 11:40:31;;;;;;;10.45;2.20;;;8.90;99.90;;;;;;4985036;28;20411;-63
2023/01/19 11:42:57;;;;;;;8.02;1.67;;;8.70;99.90;;;;;;4983047;28;20150;-63
2023/01/19 11:45:23;;;;;;;10.70;1.70;;;8.50;99.90;;;;;;4985145;28;20113;-63
2023/01/19 11:47:51;;;;;;;12.05;2.17;;;8.20;99.90;;;;;;4984943;28;20042;-63
2023/01/19 11:50:30;;;;;;;8.73;1.98;;;8.30;99.90;;;;;;4985084;28;20046;-64
2023/01/19 11:53:14;;;;;;;9.18;1.98;;;8.30;99.90;;;;;;4984090;28;20046;-63
2023/01/19 11:55:48;;;;;;;8.05;1.70;;;8.40;99.90;;;;;;4984880;28;20479;-63
2023/01/19 11:58:16;;;;;;;6.88;1.90;;;8.30;99.90;;;;;;4984995;28;20054;-63
2023/01/19 12:00:53;;;;;;;9.82;1.60;;;8.00;99.90;;;;;;4985085;28;20146;-63
2023/01/19 12:03:23;;;;;;;7.97;2.03;;;8.10;99.90;;;;;;4986116;28;20050;-64
2023/01/19 12:05:54;;;;;;;10.63;2.00;;;8.40;99.90;;;;;;4988211;28;20057;-63
2023/01/19 12:08:45;;;;;;;10.15;2.35;;;7.80;99.90;;;;;;4985346;28;20045;-62
2023/01/19 12:11:17;;;;;;;8.40;1.95;;;7.40;99.90;;;;;;4987888;28;20342;-63
2023/01/19 12:13:45;;;;;;;7.97;2.03;;;7.30;99.90;;;;;;4988068;28;20140;-63
2023/01/19 12:16:18;;;;;;;12.07;2.35;;;7.00;99.90;;;;;;4988079;28;20050;-63
2023/01/19 12:19:03;;;;;;;11.65;2.33;;;6.50;99.90;;;;;;4988093;28;20046;-62
2023/01/19 12:21:29;;;;;;;9.77;2.08;;;6.50;99.90;;;;;;4987487;28;20050;-63
2023/01/19 12:24:03;;;;;;;11.77;2.33;;;6.40;99.90;;;;;;4987687;28;20523;-63
2023/01/19 12:26:47;;;;;;;9.57;2.35;;;6.30;99.90;;;;;;4987839;28;20050;-63
2023/01/19 12:29:20;;;;;;;8.75;2.22;;;6.60;99.90;;;;;;4986546;28;20057;-62
2023/01/19 12:32:11;;;;;;;10.88;2.47;;;6.80;99.90;;;;;;4987756;28;20477;-63
2023/01/19 12:34:46;;;;;;;10.98;1.92;;;6.60;99.90;;;;;;4987189;28;20566;-63
2023/01/19 12:37:29;;;;;;;10.70;2.13;;;6.60;99.90;;;;;;4987183;28;20335;-63
2023/01/19 12:40:12;;;;;;;11.60;2.03;;;6.60;99.90;;;;;;4987184;28;20047;-63
2023/01/19 12:42:43;;;;;;;10.50;2.45;;;6.30;99.90;;;;;;4987906;28;20042;-62
2023/01/19 12:45:21;;;;;;;12.50;2.47;;;6.30;99.90;;;;;;4987374;28;20054;-63
2023/01/19 12:47:52;;;;;;;12.63;2.15;;;6.20;99.90;;;;;;4987318;28;20130;-63
2023/01/19 12:50:22;;;;;;;8.43;1.48;;;6.30;99.90;;;;;;4987643;28;20050;-63
2023/01/19 12:52:56;;;;;;;7.43;1.70;;;6.00;99.90;;;;;;4984948;28;20109;-64
2023/01/19 12:55:24;;;;;;;9.23;1.48;;;5.90;99.90;;;;;;4987413;28;20344;-62
2023/01/19 12:58:05;;;;;;;6.60;1.20;;;5.50;99.90;;;;;;4987320;28;20418;-63
2023/01/19 13:00:37;;;;;;;5.60;1.20;;;5.20;99.90;;;;;;4986215;28;20435;-62
2023/01/19 13:03:26;;;;;;;6.22;1.35;;;5.10;99.90;;;;;;4987467;28;20057;-62
2023/01/19 13:05:55;;;;;;;12.65;2.22;;;5.00;99.90;;;;;;4986889;28;20053;-63
2023/01/19 13:08:28;;;;;;;10.48;1.60;;;5.10;99.90;;;;;;4984922;28;20049;-63